createdAt,value
2018-03-01T00:00:59.815Z,23.27
2018-03-01T00:03:26.834Z,27.00
2018-03-01T00:05:53.145Z,21.63
2018-03-01T00:08:19.449Z,27.30
2018-03-01T00:10:46.478Z,23.93
2018-03-01T00:13:12.733Z,26.00
2018-03-01T00:15:39.075Z,30.40
2018-03-01T00:18:05.330Z,27.90
2018-03-01T00:20:31.616Z,25.40
2018-03-01T00:22:57.922Z,24.40
2018-03-01T00:25:24.922Z,22.30
2018-03-01T00:27:51.338Z,22.90
2018-03-01T00:30:18.338Z,27.20
2018-03-01T00:32:44.598Z,27.47
2018-03-01T00:35:11.764Z,24.07
2018-03-01T00:37:39.501Z,25.87
2018-03-01T00:40:27.370Z,21.93
2018-03-01T00:42:53.651Z,25.07
2018-03-01T00:45:20.768Z,22.30
2018-03-01T00:47:47.083Z,22.90
2018-03-01T00:50:13.367Z,26.20
2018-03-01T00:52:39.636Z,24.00
2018-03-01T00:55:05.884Z,24.20
2018-03-01T00:57:32.152Z,28.20
2018-03-01T00:59:58.461Z,23.80
2018-03-01T01:02:24.824Z,28.63
2018-03-01T01:04:51.120Z,26.47
2018-03-01T01:07:17.376Z,24.23
2018-03-01T01:09:43.645Z,26.87
2018-03-01T01:12:11.201Z,22.63
2018-03-01T01:14:37.452Z,26.67
2018-03-01T01:17:03.717Z,29.27
2018-03-01T01:19:30.059Z,26.40
2018-03-01T01:21:56.317Z,23.77
2018-03-01T01:24:22.637Z,26.40
2018-03-01T01:26:48.971Z,34.70
2018-03-01T01:29:15.992Z,28.97
2018-03-01T01:31:55.948Z,29.20
2018-03-01T01:34:22.230Z,24.47
2018-03-01T01:36:48.486Z,26.70
2018-03-01T01:39:15.453Z,22.53
2018-03-01T01:41:41.729Z,27.17
2018-03-01T01:44:07.996Z,26.50
2018-03-01T01:46:38.718Z,24.93
2018-03-01T01:49:05.007Z,31.67
2018-03-01T01:51:32.024Z,27.13
2018-03-01T01:53:58.307Z,25.87
2018-03-01T01:56:27.447Z,20.47
2018-03-01T01:58:53.698Z,27.67
2018-03-01T02:01:26.367Z,29.80
2018-03-01T02:03:52.802Z,25.27
2018-03-01T02:06:19.828Z,25.93
2018-03-01T02:08:46.095Z,24.83
2018-03-01T02:11:13.271Z,25.33
2018-03-01T02:13:40.549Z,20.43
2018-03-01T02:16:06.921Z,18.30
2018-03-01T02:18:33.204Z,25.43
2018-03-01T02:20:59.552Z,25.40
2018-03-01T02:23:30.498Z,23.30
2018-03-01T02:25:56.887Z,28.87
2018-03-01T02:28:23.166Z,27.17
2018-03-01T02:30:49.463Z,26.10
2018-03-01T02:33:15.806Z,23.53
2018-03-01T02:35:42.094Z,21.63
2018-03-01T02:38:08.378Z,25.67
2018-03-01T02:40:35.427Z,27.93
2018-03-01T02:43:02.494Z,27.50
2018-03-01T02:45:29.481Z,25.77
2018-03-01T02:47:55.783Z,25.27
2018-03-01T02:50:22.849Z,25.60
2018-03-01T02:52:49.866Z,25.10
2018-03-01T02:55:16.217Z,22.90
2018-03-01T02:57:42.550Z,29.37
2018-03-01T03:00:08.880Z,27.80
2018-03-01T03:02:35.166Z,24.23
2018-03-01T03:05:01.462Z,24.73
2018-03-01T03:07:28.843Z,23.93
2018-03-01T03:09:55.136Z,23.67
2018-03-01T03:12:21.839Z,24.47
2018-03-01T03:15:08.375Z,24.90
2018-03-01T03:17:34.706Z,28.23
2018-03-01T03:20:00.986Z,21.50
2018-03-01T03:22:27.282Z,26.23
2018-03-01T03:24:53.621Z,29.80
2018-03-01T03:27:19.908Z,22.50
2018-03-01T03:29:46.198Z,26.17
2018-03-01T03:32:12.540Z,27.83
2018-03-01T03:34:38.879Z,21.53
2018-03-01T03:37:05.194Z,22.53
2018-03-01T03:39:33.332Z,27.93
2018-03-01T03:41:59.641Z,24.13
2018-03-01T03:44:26.757Z,25.00
2018-03-01T03:46:53.045Z,23.43
2018-03-01T03:49:19.397Z,23.53
2018-03-01T03:51:45.698Z,25.07
2018-03-01T03:54:11.997Z,26.67
2018-03-01T03:56:45.501Z,24.43
2018-03-01T03:59:11.753Z,28.33
2018-03-01T04:01:38.025Z,29.77
2018-03-01T04:04:04.276Z,28.73
2018-03-01T04:06:30.567Z,23.33
2018-03-01T04:08:56.859Z,27.30
2018-03-01T04:11:23.137Z,21.93
2018-03-01T04:13:50.155Z,26.50
2018-03-01T04:16:16.458Z,30.23
2018-03-01T04:18:42.746Z,26.20
2018-03-01T04:21:09.021Z,28.17
2018-03-01T04:23:35.286Z,29.80
2018-03-01T04:26:01.585Z,29.50
2018-03-01T04:28:28.590Z,34.70
2018-03-01T04:30:55.962Z,27.67
2018-03-01T04:33:22.260Z,30.37
2018-03-01T04:35:49.270Z,29.50
2018-03-01T04:38:15.549Z,26.80
2018-03-01T04:40:42.550Z,24.83
2018-03-01T04:43:08.830Z,27.97
2018-03-01T04:45:35.856Z,23.57
2018-03-01T04:48:06.685Z,31.60
2018-03-01T04:50:32.967Z,26.57
2018-03-01T04:52:59.297Z,32.30
2018-03-01T04:55:25.584Z,23.50
2018-03-01T04:57:52.640Z,25.40
2018-03-01T05:00:18.958Z,30.70
2018-03-01T05:02:45.966Z,33.03
2018-03-01T05:05:23.055Z,33.00
2018-03-01T05:07:50.081Z,57.97
2018-03-01T05:10:16.344Z,27.97
2018-03-01T05:12:42.612Z,35.73
2018-03-01T05:15:09.608Z,33.73
2018-03-01T05:17:35.925Z,25.00
2018-03-01T05:20:02.261Z,27.27
2018-03-01T05:22:29.417Z,22.17
2018-03-01T05:24:55.785Z,25.63
2018-03-01T05:27:22.082Z,24.07
2018-03-01T05:29:48.324Z,24.10
2018-03-01T05:32:15.358Z,24.50
2018-03-01T05:34:41.943Z,26.17
2018-03-01T05:37:08.948Z,22.20
2018-03-01T05:39:35.206Z,22.13
2018-03-01T05:42:01.475Z,26.43
2018-03-01T05:44:28.478Z,27.80
2018-03-01T05:46:54.755Z,35.30
2018-03-01T05:49:21.101Z,24.13
2018-03-01T05:51:47.468Z,23.40
2018-03-01T05:54:14.511Z,27.53
2018-03-01T05:56:40.968Z,29.40
2018-03-01T05:59:07.267Z,27.13
2018-03-01T06:01:33.683Z,27.10
2018-03-01T06:03:59.934Z,25.90
2018-03-01T06:06:26.217Z,27.90
2018-03-01T06:08:52.492Z,30.10
2018-03-01T06:11:19.510Z,22.97
2018-03-01T06:13:45.805Z,25.17
2018-03-01T06:16:12.972Z,28.67
2018-03-01T06:18:39.254Z,29.20
2018-03-01T06:21:05.590Z,23.27
2018-03-01T06:23:31.923Z,28.00
2018-03-01T06:25:58.221Z,24.47
2018-03-01T06:28:36.985Z,28.20
2018-03-01T06:31:03.264Z,32.13
2018-03-01T06:33:29.637Z,26.93
2018-03-01T06:35:55.912Z,26.70
2018-03-01T06:38:22.209Z,24.77
2018-03-01T06:41:10.051Z,30.57
2018-03-01T06:43:36.320Z,35.63
2018-03-01T06:46:03.344Z,37.23
2018-03-01T06:48:31.731Z,31.43
2018-03-01T06:50:58.154Z,33.20
2018-03-01T06:53:24.487Z,51.40
2018-03-01T06:55:50.756Z,28.27
2018-03-01T06:58:17.017Z,29.37
2018-03-01T07:00:43.323Z,29.77
2018-03-01T07:06:02.834Z,36.30
2018-03-01T07:08:29.152Z,37.77
2018-03-01T07:10:56.194Z,32.67
2018-03-01T07:13:22.467Z,36.47
2018-03-01T07:15:48.791Z,33.23
2018-03-01T07:18:15.053Z,39.30
2018-03-01T07:20:42.072Z,35.70
2018-03-01T07:23:08.405Z,30.47
2018-03-01T07:25:34.767Z,32.57
2018-03-01T07:28:01.053Z,31.87
2018-03-01T07:30:27.430Z,32.17
2018-03-01T07:32:53.773Z,28.83
2018-03-01T07:35:20.164Z,31.53
2018-03-01T07:37:47.206Z,25.03
2018-03-01T07:40:13.494Z,28.67
2018-03-01T07:42:39.866Z,27.83
2018-03-01T07:45:06.116Z,29.60
2018-03-01T07:47:33.900Z,31.40
2018-03-01T07:50:03.676Z,33.97
2018-03-01T07:52:29.999Z,33.57
2018-03-01T07:54:56.290Z,34.60
2018-03-01T07:57:22.606Z,31.27
2018-03-01T08:00:02.427Z,28.60
2018-03-01T08:02:29.539Z,31.13
2018-03-01T08:04:55.851Z,23.90
2018-03-01T08:07:22.870Z,24.30
2018-03-01T08:09:49.334Z,20.50
2018-03-01T08:12:15.769Z,21.73
2018-03-01T08:14:42.142Z,20.13
2018-03-01T08:17:09.178Z,24.87
2018-03-01T08:19:35.455Z,19.97
2018-03-01T08:22:01.732Z,18.67
2018-03-01T08:24:28.219Z,23.37
2018-03-01T08:26:54.498Z,17.87
2018-03-01T08:29:20.805Z,17.10
2018-03-01T08:31:47.862Z,18.20
2018-03-01T08:34:36.250Z,18.97
2018-03-01T08:37:02.604Z,16.63
2018-03-01T08:39:28.897Z,20.37
2018-03-01T08:41:55.153Z,18.57
2018-03-01T08:44:21.446Z,16.53
2018-03-01T08:46:47.716Z,18.07
2018-03-01T08:49:14.087Z,20.80
2018-03-01T08:51:41.116Z,17.00
2018-03-01T08:54:07.367Z,22.17
2018-03-01T08:56:33.726Z,16.60
2018-03-01T08:59:00.754Z,17.60
2018-03-01T09:01:27.063Z,18.10
2018-03-01T09:03:53.314Z,16.13
2018-03-01T09:06:19.621Z,17.13
2018-03-01T09:08:46.682Z,17.57
2018-03-01T09:11:13.752Z,22.73
2018-03-01T09:13:40.885Z,17.40
2018-03-01T09:16:07.203Z,14.73
2018-03-01T09:18:33.490Z,16.33
2018-03-01T09:21:00.516Z,17.27
2018-03-01T09:23:26.820Z,21.10
2018-03-01T09:25:53.130Z,16.27
2018-03-01T09:28:20.135Z,18.50
2018-03-01T09:30:46.523Z,15.90
2018-03-01T09:33:13.619Z,15.80
2018-03-01T09:35:40.094Z,17.13
2018-03-01T09:38:06.666Z,18.47
2018-03-01T09:40:32.962Z,16.17
2018-03-01T09:42:59.229Z,19.50
2018-03-01T09:45:25.532Z,15.77
2018-03-01T09:47:51.870Z,16.63
2018-03-01T09:50:18.902Z,15.47
2018-03-01T09:52:45.425Z,18.30
2018-03-01T09:55:11.767Z,15.10
2018-03-01T09:57:38.882Z,17.07
2018-03-01T10:00:06.107Z,15.83
2018-03-01T10:02:32.434Z,13.60
2018-03-01T10:04:59.086Z,16.83
2018-03-01T10:07:25.389Z,14.70
2018-03-01T10:09:51.670Z,20.40
2018-03-01T10:12:17.977Z,17.13
2018-03-01T10:14:44.285Z,20.30
2018-03-01T10:17:10.585Z,17.47
2018-03-01T10:19:36.840Z,23.57
2018-03-01T10:22:03.149Z,16.20
2018-03-01T10:24:29.418Z,16.80
2018-03-01T10:26:55.790Z,17.87
2018-03-01T10:29:22.070Z,17.53
2018-03-01T10:31:48.325Z,19.87
2018-03-01T10:34:14.741Z,16.87
2018-03-01T10:36:41.961Z,17.40
2018-03-01T10:39:08.206Z,20.97
2018-03-01T10:41:34.492Z,19.50
2018-03-01T10:44:01.519Z,19.10
2018-03-01T10:46:27.822Z,15.97
2018-03-01T10:48:54.099Z,19.57
2018-03-01T10:51:20.354Z,17.53
2018-03-01T10:53:46.788Z,21.57
2018-03-01T10:56:13.111Z,19.90
2018-03-01T10:58:39.445Z,19.83
2018-03-01T11:01:20.685Z,22.00
2018-03-01T11:03:47.964Z,23.73
2018-03-01T11:06:15.097Z,19.67
2018-03-01T11:08:57.174Z,16.83
2018-03-01T11:11:23.535Z,17.77
2018-03-01T11:13:49.915Z,19.97
2018-03-01T11:16:16.387Z,20.87
2018-03-01T11:18:43.512Z,20.33
2018-03-01T11:21:09.860Z,21.50
2018-03-01T11:23:36.207Z,21.43
2018-03-01T11:26:03.548Z,21.87
2018-03-01T11:28:29.919Z,18.67
2018-03-01T11:30:56.467Z,18.47
2018-03-01T11:33:22.910Z,17.70
2018-03-01T11:35:49.202Z,19.87
2018-03-01T11:38:15.505Z,18.70
2018-03-01T11:40:42.568Z,23.27
2018-03-01T11:43:08.905Z,20.97
2018-03-01T11:45:35.237Z,23.27
2018-03-01T11:48:01.619Z,17.83
2018-03-01T11:50:28.127Z,21.23
2018-03-01T11:53:05.372Z,24.20
2018-03-01T11:55:31.780Z,22.03
2018-03-01T11:57:58.943Z,20.90
2018-03-01T12:00:25.210Z,18.77
2018-03-01T12:02:52.267Z,20.67
2018-03-01T12:05:18.646Z,21.50
2018-03-01T12:07:44.946Z,20.87
2018-03-01T12:10:12.043Z,21.77
2018-03-01T12:12:38.354Z,22.10
2018-03-01T12:15:05.409Z,20.57
2018-03-01T12:17:32.486Z,18.33
2018-03-01T12:19:59.516Z,21.57
2018-03-01T12:22:25.800Z,21.33
2018-03-01T12:24:52.097Z,18.10
2018-03-01T12:27:18.445Z,15.07
2018-03-01T12:29:45.527Z,22.90
2018-03-01T12:32:12.550Z,17.90
2018-03-01T12:34:39.575Z,19.83
2018-03-01T12:37:06.020Z,17.40
2018-03-01T12:39:32.501Z,25.07
2018-03-01T12:41:58.936Z,21.17
2018-03-01T12:44:27.916Z,20.47
2018-03-01T12:46:54.182Z,17.87
2018-03-01T12:49:20.557Z,20.60
2018-03-01T12:51:47.196Z,23.40
2018-03-01T12:54:13.610Z,19.47
2018-03-01T12:56:46.038Z,16.97
2018-03-01T12:59:12.757Z,20.33
2018-03-01T13:01:42.632Z,17.83
2018-03-01T13:04:11.889Z,21.53
2018-03-01T13:06:38.226Z,18.30
2018-03-01T13:09:05.339Z,18.33
2018-03-01T13:11:31.852Z,21.37
2018-03-01T13:14:04.695Z,23.83
2018-03-01T13:16:37.530Z,19.30
2018-03-01T13:19:03.928Z,22.17
2018-03-01T13:21:31.019Z,22.60
2018-03-01T13:23:57.398Z,22.83
2018-03-01T13:26:23.770Z,22.83
2018-03-01T13:28:52.001Z,20.73
2018-03-01T13:31:19.189Z,19.17
2018-03-01T13:33:52.365Z,25.70
2018-03-01T13:36:19.507Z,19.00
2018-03-01T13:38:46.552Z,21.50
2018-03-01T13:41:12.842Z,23.93
2018-03-01T13:43:42.522Z,24.53
2018-03-01T13:46:09.809Z,25.97
2018-03-01T13:48:36.148Z,25.97
2018-03-01T13:51:02.440Z,21.03
2018-03-01T13:53:28.787Z,23.83
2018-03-01T13:55:55.080Z,21.37
2018-03-01T13:58:25.668Z,20.90
2018-03-01T14:00:52.791Z,22.63
2018-03-01T14:03:19.249Z,19.13
2018-03-01T14:05:45.555Z,24.20
2018-03-01T14:08:11.979Z,25.60
2018-03-01T14:10:38.303Z,23.60
2018-03-01T14:13:10.560Z,24.07
2018-03-01T14:15:38.726Z,20.63
2018-03-01T14:18:16.748Z,23.73
2018-03-01T14:20:50.266Z,26.23
2018-03-01T14:26:30.070Z,24.43
2018-03-01T14:28:58.431Z,23.67
2018-03-01T14:31:26.690Z,21.97
2018-03-01T14:33:52.874Z,23.33
2018-03-01T14:36:19.019Z,26.40
2018-03-01T14:38:45.212Z,23.90
2018-03-01T14:41:12.355Z,26.87
2018-03-01T14:43:38.585Z,25.60
2018-03-01T14:46:04.899Z,31.03
2018-03-01T14:48:31.256Z,23.27
2018-03-01T14:50:58.451Z,26.97
2018-03-01T14:53:24.670Z,23.10
2018-03-01T14:55:51.002Z,22.17
2018-03-01T14:58:17.185Z,25.60
2018-03-01T15:00:43.555Z,24.93
2018-03-01T15:03:09.734Z,26.90
2018-03-01T15:05:35.936Z,25.23
2018-03-01T15:08:06.226Z,21.67
2018-03-01T15:10:32.408Z,24.93
2018-03-01T15:12:59.404Z,25.97
2018-03-01T15:15:25.700Z,24.63
2018-03-01T15:17:54.268Z,29.10
2018-03-01T15:20:20.616Z,33.23
2018-03-01T15:22:46.929Z,25.03
2018-03-01T15:25:13.223Z,26.37
2018-03-01T15:27:39.506Z,26.83
2018-03-01T15:30:05.777Z,28.07
2018-03-01T15:32:32.131Z,26.27
2018-03-01T15:35:01.563Z,25.90
2018-03-01T15:37:27.907Z,28.90
2018-03-01T15:39:54.384Z,28.10
2018-03-01T15:42:20.804Z,29.77
2018-03-01T15:44:47.884Z,33.63
2018-03-01T15:47:14.582Z,27.73
2018-03-01T15:49:40.830Z,27.03
2018-03-01T15:52:07.123Z,30.77
2018-03-01T15:54:42.722Z,29.70
2018-03-01T15:57:19.366Z,31.03
2018-03-01T15:59:46.531Z,29.37
2018-03-01T16:02:13.647Z,24.80
2018-03-01T16:04:41.729Z,25.47
2018-03-01T16:07:26.424Z,33.13
2018-03-01T16:09:52.810Z,32.90
2018-03-01T16:12:19.176Z,27.17
2018-03-01T16:14:45.580Z,30.23
2018-03-01T16:17:11.861Z,28.37
2018-03-01T16:19:38.220Z,30.87
2018-03-01T16:22:04.538Z,27.70
2018-03-01T16:24:30.887Z,28.73
2018-03-01T16:26:58.277Z,29.73
2018-03-01T16:29:27.194Z,28.43
2018-03-01T16:31:53.600Z,30.30
2018-03-01T16:34:19.895Z,32.77
2018-03-01T16:36:46.202Z,30.57
2018-03-01T16:39:15.742Z,27.73
2018-03-01T16:41:41.986Z,31.57
2018-03-01T16:44:08.244Z,32.23
2018-03-01T16:46:35.299Z,29.13
2018-03-01T16:49:01.549Z,32.63
2018-03-01T16:51:28.653Z,26.77
2018-03-01T16:53:54.916Z,30.37
2018-03-01T16:56:21.217Z,33.73
2018-03-01T16:58:47.486Z,32.30
2018-03-01T17:01:20.796Z,29.47
2018-03-01T17:03:47.109Z,30.77
2018-03-01T17:06:14.171Z,30.43
2018-03-01T17:08:40.592Z,32.03
2018-03-01T17:11:06.880Z,32.30
2018-03-01T17:13:33.249Z,28.13
2018-03-01T17:16:00.711Z,28.30
2018-03-01T17:18:27.532Z,32.63
2018-03-01T17:20:54.869Z,29.03
2018-03-01T17:23:21.421Z,30.17
2018-03-01T17:25:57.255Z,28.77
2018-03-01T17:28:23.845Z,33.43
2018-03-01T17:30:50.299Z,29.43
2018-03-01T17:33:17.431Z,28.30
2018-03-01T17:35:43.721Z,33.23
2018-03-01T17:38:09.980Z,29.07
2018-03-01T17:40:36.258Z,33.43
2018-03-01T17:43:02.660Z,29.50
2018-03-01T17:45:28.982Z,33.50
2018-03-01T17:47:55.321Z,32.27
2018-03-01T17:50:21.620Z,32.60
2018-03-01T17:52:48.062Z,35.00
2018-03-01T17:55:14.509Z,33.87
2018-03-01T17:57:40.852Z,35.43
2018-03-01T18:00:07.249Z,34.50
2018-03-01T18:02:33.517Z,28.80
2018-03-01T18:05:00.757Z,35.00
2018-03-01T18:07:27.245Z,29.40
2018-03-01T18:09:54.374Z,30.33
2018-03-01T18:12:22.844Z,33.77
2018-03-01T18:14:50.918Z,32.80
2018-03-01T18:17:17.987Z,33.80
2018-03-01T18:19:45.187Z,33.30
2018-03-01T18:22:11.656Z,33.03
2018-03-01T18:24:37.999Z,30.43
2018-03-01T18:27:04.255Z,32.13
2018-03-01T18:29:30.577Z,34.40
2018-03-01T18:31:57.311Z,34.50
2018-03-01T18:34:23.723Z,32.10
2018-03-01T18:36:50.806Z,32.60
2018-03-01T18:39:17.888Z,39.90
2018-03-01T18:41:44.907Z,33.57
2018-03-01T18:44:11.968Z,32.23
2018-03-01T18:46:38.244Z,35.63
2018-03-01T18:49:04.498Z,29.77
2018-03-01T18:51:30.837Z,36.57
2018-03-01T18:54:01.820Z,36.37
2018-03-01T18:56:28.499Z,34.17
2018-03-01T18:58:55.524Z,34.40
2018-03-01T19:01:27.712Z,36.00
2018-03-01T19:03:59.061Z,30.80
2018-03-01T19:06:25.341Z,31.83
2018-03-01T19:08:51.760Z,31.17
2018-03-01T19:11:18.045Z,32.57
2018-03-01T19:13:57.206Z,33.07
2018-03-01T19:16:23.542Z,31.23
2018-03-01T19:18:50.044Z,36.23
2018-03-01T19:21:16.322Z,33.90
2018-03-01T19:23:42.859Z,32.80
2018-03-01T19:26:09.891Z,34.43
2018-03-01T19:28:40.967Z,34.40
2018-03-01T19:31:07.990Z,32.83
2018-03-01T19:33:34.350Z,36.40
2018-03-01T19:36:14.983Z,34.27
2018-03-01T19:38:45.231Z,38.60
2018-03-01T19:41:11.529Z,27.70
2018-03-01T19:43:38.550Z,38.50
2018-03-01T19:46:05.602Z,36.00
2018-03-01T19:48:31.911Z,31.43
2018-03-01T19:50:58.609Z,38.47
2018-03-01T19:53:24.886Z,36.07
2018-03-01T19:55:54.919Z,36.40
2018-03-01T19:58:21.956Z,32.03
2018-03-01T20:00:48.203Z,33.97
2018-03-01T20:03:15.449Z,35.03
2018-03-01T20:05:41.722Z,37.13
2018-03-01T20:08:13.028Z,36.63
2018-03-01T20:10:39.330Z,32.93
2018-03-01T20:13:05.619Z,35.67
2018-03-01T20:15:32.012Z,35.13
2018-03-01T20:17:59.147Z,36.03
2018-03-01T20:20:29.041Z,37.93
2018-03-01T20:22:55.720Z,38.50
2018-03-01T20:25:22.084Z,32.90
2018-03-01T20:27:57.567Z,33.47
2018-03-01T20:30:23.943Z,35.90
2018-03-01T20:32:50.229Z,38.00
2018-03-01T20:35:16.510Z,39.33
2018-03-01T20:37:43.456Z,35.03
2018-03-01T20:40:09.770Z,35.60
2018-03-01T20:42:36.072Z,39.93
2018-03-01T20:45:02.623Z,39.20
2018-03-01T20:47:29.146Z,40.73
2018-03-01T20:49:57.474Z,37.03
2018-03-01T20:52:23.900Z,37.93
2018-03-01T20:54:50.447Z,40.93
2018-03-01T20:57:16.829Z,32.87
2018-03-01T20:59:43.167Z,41.37
2018-03-01T21:02:09.504Z,41.23
2018-03-01T21:04:35.854Z,41.10
2018-03-01T21:07:02.159Z,33.90
2018-03-01T21:09:28.635Z,35.03
2018-03-01T21:11:54.942Z,35.13
2018-03-01T21:14:21.232Z,40.47
2018-03-01T21:16:47.507Z,37.97
2018-03-01T21:19:15.886Z,37.73
2018-03-01T21:21:42.138Z,48.37
2018-03-01T21:24:09.167Z,37.13
2018-03-01T21:26:35.551Z,39.37
2018-03-01T21:29:01.993Z,38.57
2018-03-01T21:31:28.458Z,39.33
2018-03-01T21:33:57.267Z,38.33
2018-03-01T21:36:23.598Z,36.40
2018-03-01T21:38:50.984Z,40.33
2018-03-01T21:41:17.314Z,42.87
2018-03-01T21:43:43.768Z,42.20
2018-03-01T21:46:13.076Z,43.97
2018-03-01T21:48:46.880Z,38.13
2018-03-01T21:51:18.599Z,37.67
2018-03-01T21:53:44.866Z,41.07
2018-03-01T21:56:23.993Z,40.23
2018-03-01T21:58:51.381Z,44.13
2018-03-01T22:01:18.562Z,46.10
2018-03-01T22:03:45.025Z,42.63
2018-03-01T22:06:11.438Z,44.07
2018-03-01T22:08:38.037Z,48.93
2018-03-01T22:11:04.413Z,40.57
2018-03-01T22:13:30.805Z,45.80
2018-03-01T22:15:57.810Z,41.53
2018-03-01T22:18:24.286Z,37.57
2018-03-01T22:20:54.457Z,43.03
2018-03-01T22:23:20.919Z,36.13
2018-03-01T22:25:47.391Z,44.60
2018-03-01T22:28:14.550Z,39.90
2018-03-01T22:30:42.819Z,45.73
2018-03-01T22:33:09.112Z,49.57
2018-03-01T22:35:35.515Z,43.53
2018-03-01T22:38:01.796Z,46.93
2018-03-01T22:40:28.092Z,43.93
2018-03-01T22:42:54.367Z,45.37
2018-03-01T22:45:21.423Z,44.10
2018-03-01T22:47:48.548Z,47.27
2018-03-01T22:50:15.008Z,46.93
2018-03-01T22:52:41.266Z,53.73
2018-03-01T22:55:07.554Z,47.47
2018-03-01T22:57:33.842Z,42.50
2018-03-01T23:00:00.144Z,48.87
2018-03-01T23:02:26.459Z,50.50
2018-03-01T23:04:52.871Z,45.90
2018-03-01T23:07:22.443Z,47.30
2018-03-01T23:09:48.774Z,49.57
2018-03-01T23:12:15.188Z,47.83
2018-03-01T23:14:42.217Z,43.17
2018-03-01T23:17:08.473Z,48.53
2018-03-01T23:19:34.722Z,47.40
2018-03-01T23:22:01.121Z,51.53
2018-03-01T23:24:27.657Z,45.53
2018-03-01T23:26:53.942Z,45.23
2018-03-01T23:29:20.210Z,46.00
2018-03-01T23:31:46.840Z,44.43
2018-03-01T23:34:13.135Z,46.10
2018-03-01T23:36:39.407Z,47.90
2018-03-01T23:39:05.714Z,50.57
2018-03-01T23:41:32.065Z,43.97
2018-03-01T23:43:58.473Z,48.17
2018-03-01T23:46:24.981Z,50.03
2018-03-01T23:48:51.309Z,49.43
2018-03-01T23:51:17.835Z,44.23
2018-03-01T23:53:45.181Z,47.67
2018-03-01T23:56:12.250Z,51.27
2018-03-01T23:58:46.236Z,47.50
